Time;durP1;ratioP1;P1;durP2;ratioP2;P2;SDS_P1;SDS_P2;PMS_P1;PMS_P2;Temp;Humidity;BMP_temperature;BMP_pressure;BME280_temperature;BME280_humidity;BME280_pressure;Samples;Min_cycle;Max_cycle;Signal;HPM_P1;HPM_P2
2023/07/18 00:08:44;;;;;;;0.68;0.50;;;;;;;;;;20713017;28;20262;-72
2023/07/18 00:18:47;;;;;;;0.90;0.50;;;;;;;;;;20793747;28;20238;-72
2023/07/18 00:28:53;;;;;;;0.65;0.45;;;;;;;;;;20780100;28;20201;-72
2023/07/18 00:38:55;;;;;;;1.17;0.70;;;;;;;;;;20778089;28;20527;-72
2023/07/18 00:48:57;;;;;;;0.80;0.50;;;;;;;;;;20763871;28;20667;-72
2023/07/18 00:59:18;;;;;;;2.08;0.60;;;;;;;;;;20722895;28;20249;-72
2023/07/18 01:09:20;;;;;;;1.40;0.73;;;;;;;;;;20728715;28;20239;-72
2023/07/18 01:19:22;;;;;;;1.13;0.68;;;;;;;;;;20791687;28;20696;-72
2023/07/18 01:29:24;;;;;;;1.70;0.60;;;;;;;;;;20775198;28;20267;-72
2023/07/18 01:39:26;;;;;;;2.35;0.88;;;;;;;;;;20774391;28;20228;-72
2023/07/18 01:49:28;;;;;;;1.80;0.70;;;;;;;;;;20772552;28;20262;-72
2023/07/18 01:59:29;;;;;;;1.80;0.73;;;;;;;;;;20772822;28;20339;-72
2023/07/18 02:09:33;;;;;;;2.13;0.85;;;;;;;;;;20746197;28;20793;-72
2023/07/18 02:19:35;;;;;;;1.40;1.00;;;22.80;99.90;;;;;;20787369;28;20230;-72
2023/07/18 02:29:38;;;;;;;1.73;0.90;;;;;;;;;;20786955;28;20294;-72
2023/07/18 02:39:43;;;;;;;2.20;0.73;;;;;;;;;;20770098;28;20633;-72
2023/07/18 02:49:45;;;;;;;1.95;1.23;;;;;;;;;;20769671;28;20211;-72
2023/07/18 02:59:47;;;;;;;2.25;1.20;;;;;;;;;;20770867;28;20269;-72
2023/07/18 03:09:49;;;;;;;2.33;1.00;;;;;;;;;;20783547;28;20225;-71
2023/07/18 03:19:51;;;;;;;1.95;0.80;;;;;;;;;;20717871;28;20810;-72
2023/07/18 03:29:52;;;;;;;1.83;0.90;;;;;;;;;;20781027;28;20282;-72
2023/07/18 03:39:54;;;;;;;2.40;0.85;;;;;;;;;;20807607;28;20224;-76
2023/07/18 03:49:56;;;;;;;1.90;0.80;;;;;;;;;;20790426;28;20744;-74
2023/07/18 03:59:58;;;;;;;1.87;0.90;;;;;;;;;;20821718;28;20254;-76
2023/07/18 04:10:00;;;;;;;1.88;0.85;;;;;;;;;;20838199;28;20213;-74
2023/07/18 04:20:05;;;;;;;3.35;0.98;;;21.80;99.90;;;;;;20796960;28;20368;-74
2023/07/18 04:30:08;;;;;;;1.20;0.70;;;21.80;99.90;;;;;;20715141;28;20223;-74
2023/07/18 04:40:10;;;;;;;5.37;0.70;;;21.70;97.60;;;;;;20748880;28;20294;-74
2023/07/18 04:50:12;;;;;;;4.10;0.83;;;;;;;;;;20681616;28;20244;-74
2023/07/18 05:00:14;;;;;;;3.43;1.17;;;21.70;99.90;;;;;;20789940;28;20218;-74
2023/07/18 05:10:16;;;;;;;2.60;0.80;;;;;;;;;;20720004;28;20215;-73
2023/07/18 05:20:19;;;;;;;2.97;1.25;;;;;;;;;;20753806;28;20241;-73
2023/07/18 05:30:21;;;;;;;3.13;1.33;;;;;;;;;;20704023;28;20220;-72
2023/07/18 05:40:23;;;;;;;4.43;1.13;;;;;;;;;;20737007;28;20269;-72
2023/07/18 05:50:25;;;;;;;2.00;1.05;;;;;;;;;;20734021;28;20216;-71
2023/07/18 06:00:27;;;;;;;2.63;1.13;;;;;;;;;;20761687;28;20227;-71
2023/07/18 06:10:29;;;;;;;2.60;0.90;;;;;;;;;;20728259;28;20735;-72
2023/07/18 06:20:32;;;;;;;2.27;0.90;;;;;;;;;;20767869;28;20285;-73
2023/07/18 06:30:35;;;;;;;1.90;0.90;;;;;;;;;;20728917;28;20228;-70
2023/07/18 06:40:37;;;;;;;4.88;0.88;;;;;;;;;;20686741;28;20271;-70
2023/07/18 06:50:50;;;;;;;1.80;0.88;;;23.00;99.90;;;;;;20703707;28;20232;-70
2023/07/18 07:00:52;;;;;;;2.97;0.90;;;;;;;;;;20686894;28;20287;-69
2023/07/18 07:11:03;;;;;;;4.20;0.80;;;;;;;;;;20718235;28;20272;-69
2023/07/18 07:21:06;;;;;;;2.10;0.80;;;;;;;;;;20705951;28;20293;-70
2023/07/18 07:31:07;;;;;;;1.40;0.80;;;;;;;;;;20784014;28;20242;-69
2023/07/18 07:41:09;;;;;;;2.92;0.82;;;;;;;;;;20782628;28;20358;-70
2023/07/18 07:51:15;;;;;;;1.15;0.90;;;;;;;;;;20795675;28;20218;-70
2023/07/18 08:01:18;;;;;;;1.65;0.90;;;;;;;;;;20802259;28;20238;-70
2023/07/18 08:11:20;;;;;;;1.90;1.00;;;;;;;;;;20822087;28;20228;-70
2023/07/18 08:21:22;;;;;;;1.98;1.00;;;;;;;;;;20836102;28;20223;-70
2023/07/18 08:31:24;;;;;;;2.88;0.70;;;;;;;;;;20877759;28;20284;-69
2023/07/18 08:41:27;;;;;;;1.23;0.70;;;;;;;;;;20877440;28;20269;-70
2023/07/18 08:51:31;;;;;;;1.40;0.60;;;25.30;93.00;;;;;;20833379;28;20273;-69
2023/07/18 09:01:33;;;;;;;1.83;0.80;;;25.40;82.90;;;;;;20892686;28;20219;-70
2023/07/18 09:11:35;;;;;;;7.30;0.90;;;;;;;;;;20804649;28;20246;-69
2023/07/18 09:21:37;;;;;;;0.85;0.50;;;;;;;;;;20770215;28;20228;-69
2023/07/18 09:31:39;;;;;;;0.68;0.50;;;;;;;;;;20775451;28;20224;-71
2023/07/18 09:41:41;;;;;;;2.33;0.50;;;;;;;;;;20774428;28;20696;-70
2023/07/18 09:51:47;;;;;;;0.80;0.55;;;;;;;;;;20773916;28;20221;-71
2023/07/18 10:01:51;;;;;;;1.60;0.70;;;;;;;;;;20773482;28;20224;-72
2023/07/18 10:11:58;;;;;;;2.83;0.75;;;26.00;78.00;;;;;;20720007;28;20253;-71
2023/07/18 10:22:01;;;;;;;1.35;0.68;;;;;;;;;;20760086;28;20228;-70
2023/07/18 10:32:04;;;;;;;2.88;0.63;;;26.10;83.90;;;;;;20787182;28;20232;-70
2023/07/18 10:42:21;;;;;;;1.58;0.73;;;26.30;80.80;;;;;;20796058;28;20243;-72
2023/07/18 10:52:25;;;;;;;1.38;0.65;;;;;;;;;;20763224;28;20216;-72
2023/07/18 11:02:28;;;;;;;3.97;0.60;;;;;;;;;;20767283;28;20288;-71
2023/07/18 11:12:30;;;;;;;1.48;0.52;;;;;;;;;;20767301;28;20213;-71
2023/07/18 11:22:33;;;;;;;0.95;0.60;;;27.10;80.40;;;;;;20730760;28;20266;-71
2023/07/18 11:32:45;;;;;;;1.63;0.60;;;28.00;78.50;;;;;;20777491;28;20261;-71
2023/07/18 11:42:57;;;;;;;0.77;0.40;;;;;;;;;;20901850;22;20294;-72
2023/07/18 11:53:00;;;;;;;1.13;0.52;;;;;;;;;;20935199;28;20223;-72
2023/07/18 12:03:02;;;;;;;1.05;0.55;;;;;;;;;;20938874;28;20285;-71
2023/07/18 12:13:05;;;;;;;0.60;0.40;;;;;;;;;;20923292;28;20219;-71
2023/07/18 12:23:06;;;;;;;2.70;0.80;;;;;;;;;;20942613;28;20283;-72
2023/07/18 12:33:08;;;;;;;1.65;0.90;;;;;;;;;;20941142;28;20598;-71
2023/07/18 12:43:11;;;;;;;0.95;0.70;;;;;;;;;;20941688;28;20567;-71
2023/07/18 12:53:14;;;;;;;2.03;0.60;;;;;;;;;;20953970;28;20233;-71
2023/07/18 13:03:16;;;;;;;1.40;0.70;;;;;;;;;;20947677;28;20225;-71
2023/07/18 13:13:18;;;;;;;1.65;0.80;;;;;;;;;;20936911;28;20265;-71
2023/07/18 13:23:20;;;;;;;0.80;0.50;;;;;;;;;;20937829;28;20223;-71
2023/07/18 13:33:22;;;;;;;3.38;0.57;;;;;;;;;;20923598;28;20223;-71
2023/07/18 13:43:24;;;;;;;0.70;0.50;;;;;;;;;;20936310;28;20227;-71
2023/07/18 13:53:26;;;;;;;2.25;0.88;;;;;;;;;;20938716;28;20695;-71
2023/07/18 14:03:28;;;;;;;1.75;0.88;;;;;;;;;;20943804;28;20737;-71
2023/07/18 14:13:31;;;;;;;1.05;0.63;;;;;;;;;;20917431;28;20212;-73
2023/07/18 14:23:33;;;;;;;2.15;1.33;;;;;;;;;;20950382;28;20258;-71
2023/07/18 14:33:35;;;;;;;2.53;0.93;;;;;;;;;;20949058;28;20217;-72
2023/07/18 14:43:39;;;;;;;2.33;0.60;;;;;;;;;;20919485;28;20228;-72
2023/07/18 14:53:41;;;;;;;1.77;0.82;;;;;;;;;;20933309;28;20289;-72
2023/07/18 15:03:43;;;;;;;1.10;0.60;;;;;;;;;;20940101;28;20244;-71
2023/07/18 15:13:45;;;;;;;1.13;0.63;;;;;;;;;;20935479;28;20210;-72
2023/07/18 15:23:47;;;;;;;1.10;0.60;;;;;;;;;;20930373;28;20282;-72
2023/07/18 15:33:49;;;;;;;1.60;0.70;;;;;;;;;;20921786;28;20205;-72
2023/07/18 15:43:52;;;;;;;1.65;0.50;;;;;;;;;;20910341;28;20690;-72
2023/07/18 15:53:54;;;;;;;1.23;0.63;;;;;;;;;;20885669;28;20282;-72
2023/07/18 16:03:56;;;;;;;1.58;0.73;;;;;;;;;;20905778;28;20577;-72
2023/07/18 16:13:58;;;;;;;1.73;0.70;;;;;;;;;;20903226;28;20263;-72
2023/07/18 16:24:00;;;;;;;1.30;0.82;;;;;;;;;;20901286;28;20286;-72
2023/07/18 16:34:02;;;;;;;2.85;0.70;;;;;;;;;;20944247;28;20221;-71
2023/07/18 16:44:04;;;;;;;1.58;0.70;;;;;;;;;;20958701;28;20221;-72
2023/07/18 16:54:08;;;;;;;2.00;0.70;;;;;;;;;;20941818;28;20217;-72
2023/07/18 17:04:11;;;;;;;0.95;0.63;;;;;;;;;;20914325;28;20277;-73
2023/07/18 17:14:13;;;;;;;1.25;0.68;;;;;;;;;;20901236;28;20582;-73
2023/07/18 17:24:15;;;;;;;1.13;0.73;;;;;;;;;;20895199;28;20241;-71
2023/07/18 17:34:17;;;;;;;1.13;0.70;;;;;;;;;;20870639;28;20292;-70
2023/07/18 17:44:19;;;;;;;1.05;0.65;;;;;;;;;;20894257;28;20248;-71
2023/07/18 17:54:27;;;;;;;0.73;0.43;;;;;;;;;;20941259;22;20236;-84
2023/07/18 18:04:36;;;;;;;1.30;0.60;;;;;;;;;;20993150;22;20245;-70
2023/07/18 18:14:38;;;;;;;0.70;0.43;;;;;;;;;;20933611;28;20278;-70
2023/07/18 18:24:41;;;;;;;1.00;0.60;;;;;;;;;;20904959;28;20700;-70
2023/07/18 18:34:42;;;;;;;2.78;0.73;;;;;;;;;;20932765;28;20588;-70
2023/07/18 18:44:45;;;;;;;1.60;1.08;;;;;;;;;;20942712;28;20269;-70
2023/07/18 18:54:47;;;;;;;2.17;0.73;;;;;;;;;;20926862;28;20240;-70
2023/07/18 19:04:50;;;;;;;1.00;0.60;;;;;;;;;;20923693;28;20778;-70
2023/07/18 19:14:54;;;;;;;1.20;0.77;;;;;;;;;;20911052;28;20265;-70
2023/07/18 19:24:56;;;;;;;1.13;0.50;;;;;;;;;;20939821;28;20245;-72
2023/07/18 19:34:58;;;;;;;1.30;0.65;;;;;;;;;;20919671;28;20212;-70
2023/07/18 19:44:59;;;;;;;2.47;0.77;;;;;;;;;;20937286;28;20604;-70
2023/07/18 19:55:02;;;;;;;1.73;0.82;;;;;;;;;;20971419;28;20289;-70
2023/07/18 20:05:04;;;;;;;1.67;0.90;;;;;;;;;;20966264;28;20233;-70
2023/07/18 20:15:06;;;;;;;1.55;0.80;;;;;;;;;;20925089;28;20949;-69
2023/07/18 20:25:09;;;;;;;2.70;0.80;;;;;;;;;;20921762;28;20240;-69
2023/07/18 20:35:10;;;;;;;1.42;0.80;;;;;;;;;;20935348;28;20219;-69
2023/07/18 20:45:14;;;;;;;1.67;0.90;;;;;;;;;;20930094;28;20580;-70
2023/07/18 20:55:16;;;;;;;1.25;0.80;;;;;;;;;;20957474;28;20243;-69
2023/07/18 21:05:18;;;;;;;1.70;0.88;;;;;;;;;;20949506;28;20240;-69
2023/07/18 21:15:20;;;;;;;1.92;0.98;;;;;;;;;;20957779;28;20217;-69
2023/07/18 21:25:22;;;;;;;1.30;0.70;;;;;;;;;;20939743;28;20249;-69
2023/07/18 21:35:24;;;;;;;2.20;0.82;;;;;;;;;;20921764;28;20298;-69
2023/07/18 21:45:26;;;;;;;1.75;0.90;;;27.50;98.10;;;;;;20917137;28;20231;-69
2023/07/18 21:55:28;;;;;;;2.55;1.13;;;;;;;;;;20939332;28;20247;-72
2023/07/18 22:05:30;;;;;;;1.88;1.20;;;;;;;;;;20951684;28;20227;-69
2023/07/18 22:15:32;;;;;;;2.20;1.00;;;;;;;;;;20953264;28;20227;-68
2023/07/18 22:25:34;;;;;;;2.05;0.95;;;;;;;;;;20936686;28;20231;-69
2023/07/18 22:35:36;;;;;;;2.28;0.80;;;;;;;;;;20953179;28;20222;-69
2023/07/18 22:45:38;;;;;;;1.60;0.95;;;;;;;;;;20935819;28;20257;-68
2023/07/18 22:55:39;;;;;;;1.35;0.80;;;;;;;;;;20932454;28;20281;-69
2023/07/18 23:05:41;;;;;;;1.70;0.80;;;;;;;;;;20947898;28;20224;-68
2023/07/18 23:15:43;;;;;;;2.42;1.13;;;;;;;;;;20931946;28;20220;-69
2023/07/18 23:25:45;;;;;;;1.65;1.00;;;;;;;;;;20951624;28;20226;-68
2023/07/18 23:35:47;;;;;;;1.60;0.93;;;26.10;99.90;;;;;;20960965;28;20227;-69
2023/07/18 23:45:49;;;;;;;1.83;1.02;;;;;;;;;;20965396;28;20776;-69
2023/07/18 23:55:50;;;;;;;1.48;0.90;;;;;;;;;;20962058;22;20251;-80
